Time;durP1;ratioP1;P1;durP2;ratioP2;P2;SDS_P1;SDS_P2;PMS_P1;PMS_P2;Temp;Humidity;BMP_temperature;BMP_pressure;BME280_temperature;BME280_humidity;BME280_pressure;Samples;Min_cycle;Max_cycle;Signal;HPM_P1;HPM_P2
2022/04/02 00:00:53;;;;;;;3.00;2.50;;;2.10;99.90;;;;;;5036319;28;20477;-66
2022/04/02 00:03:19;;;;;;;3.70;2.40;;;2.10;99.90;;;;;;5033202;28;20277;-67
2022/04/02 00:05:45;;;;;;;2.70;2.50;;;2.00;99.90;;;;;;5034416;28;20278;-65
2022/04/02 00:08:11;;;;;;;6.77;3.50;;;2.00;99.90;;;;;;5036761;28;20477;-67
2022/04/02 00:10:37;;;;;;;2.77;2.50;;;2.00;99.90;;;;;;5021704;28;20459;-67
2022/04/02 00:13:03;;;;;;;3.20;2.90;;;2.00;99.90;;;;;;5036625;28;20901;-68
2022/04/02 00:15:29;;;;;;;2.90;2.17;;;2.00;99.90;;;;;;5041690;28;20482;-67
2022/04/02 00:17:55;;;;;;;2.83;2.63;;;2.00;99.90;;;;;;5042500;28;20456;-68
2022/04/02 00:20:21;;;;;;;2.97;2.60;;;2.00;99.90;;;;;;5046836;28;20222;-67
2022/04/02 00:25:31;;;;;;;2.50;2.30;;;2.00;99.90;;;;;;5045011;28;20483;-68
2022/04/02 00:27:57;;;;;;;2.93;2.53;;;2.00;99.90;;;;;;5035103;28;20596;-68
2022/04/02 00:30:24;;;;;;;3.87;3.00;;;2.00;99.90;;;;;;5036277;28;20519;-69
2022/04/02 00:32:50;;;;;;;4.43;2.60;;;2.00;99.90;;;;;;5024753;28;20459;-67
2022/04/02 00:35:15;;;;;;;3.53;2.43;;;2.00;99.90;;;;;;5040594;28;20227;-68
2022/04/02 00:37:41;;;;;;;2.60;2.40;;;2.00;99.90;;;;;;5044004;28;20307;-67
2022/04/02 00:40:08;;;;;;;2.90;2.30;;;2.00;99.90;;;;;;5029998;28;20220;-69
2022/04/02 00:42:33;;;;;;;3.77;2.80;;;2.00;99.90;;;;;;5038042;28;20225;-69
2022/04/02 00:44:59;;;;;;;3.57;2.67;;;2.00;99.90;;;;;;5024532;28;20491;-68
2022/04/02 00:47:25;;;;;;;4.83;3.57;;;2.00;99.90;;;;;;5014979;28;20587;-66
2022/04/02 00:49:53;;;;;;;3.50;2.30;;;2.00;99.90;;;;;;5028804;28;20216;-68
2022/04/02 00:52:21;;;;;;;2.77;2.57;;;2.10;99.90;;;;;;5047298;28;20458;-68
2022/04/02 00:54:49;;;;;;;3.10;2.20;;;2.10;99.90;;;;;;5041691;28;20466;-67
2022/04/02 00:57:15;;;;;;;2.37;2.17;;;2.10;99.90;;;;;;5033972;28;20521;-67
2022/04/02 00:59:41;;;;;;;2.67;2.40;;;2.00;99.90;;;;;;5025437;28;20458;-68
2022/04/02 01:02:07;;;;;;;4.80;2.20;;;2.00;99.90;;;;;;5028735;28;20455;-68
2022/04/02 01:04:33;;;;;;;3.00;2.10;;;2.00;99.90;;;;;;5029935;28;20558;-67
2022/04/02 01:07:00;;;;;;;2.70;2.10;;;2.00;99.90;;;;;;5033932;28;20234;-66
2022/04/02 01:09:28;;;;;;;2.30;2.07;;;2.00;99.90;;;;;;5030554;28;20856;-67
2022/04/02 01:11:55;;;;;;;3.17;2.10;;;2.00;99.90;;;;;;5031323;28;20470;-68
2022/04/02 01:14:21;;;;;;;3.00;2.13;;;2.10;99.90;;;;;;5032617;28;20215;-66
2022/04/02 01:16:50;;;;;;;4.00;2.47;;;2.00;99.90;;;;;;5030432;28;20447;-68
2022/04/02 01:19:22;;;;;;;3.40;2.60;;;2.00;99.90;;;;;;5021866;28;20559;-68
2022/04/02 01:21:56;;;;;;;2.03;1.90;;;2.00;99.90;;;;;;5029231;28;20533;-66
2022/04/02 01:24:44;;;;;;;1.90;1.80;;;2.00;99.90;;;;;;5044919;28;20534;-65
2022/04/02 01:27:11;;;;;;;2.20;2.00;;;2.00;99.90;;;;;;5043518;28;20455;-67
2022/04/02 01:29:38;;;;;;;4.67;2.40;;;1.90;99.90;;;;;;5026360;28;20928;-67
2022/04/02 01:32:08;;;;;;;3.40;2.70;;;2.00;99.90;;;;;;5011451;28;20494;-68
2022/04/02 01:34:34;;;;;;;2.90;1.93;;;2.00;99.90;;;;;;5033704;28;20534;-67
2022/04/02 01:37:13;;;;;;;3.70;2.20;;;2.00;99.90;;;;;;5041644;28;20469;-68
2022/04/02 01:39:44;;;;;;;1.73;1.63;;;1.90;99.90;;;;;;5013691;28;20463;-68
2022/04/02 01:42:14;;;;;;;2.40;2.20;;;1.90;99.90;;;;;;5033790;28;20462;-67
2022/04/02 01:44:51;;;;;;;5.10;2.07;;;1.90;99.90;;;;;;5025808;28;20470;-66
2022/04/02 01:47:21;;;;;;;2.60;2.13;;;1.90;99.90;;;;;;5031572;28;20561;-67
2022/04/02 01:49:48;;;;;;;1.97;1.77;;;1.90;99.90;;;;;;5038198;28;20464;-67
2022/04/02 01:52:17;;;;;;;2.70;2.43;;;2.00;99.90;;;;;;5022585;28;20451;-68
2022/04/02 01:54:44;;;;;;;1.80;1.40;;;1.90;99.90;;;;;;5040223;28;20458;-67
2022/04/02 01:57:15;;;;;;;3.00;2.40;;;1.90;99.90;;;;;;5034944;28;20451;-68
2022/04/02 01:59:44;;;;;;;2.37;2.17;;;2.00;99.90;;;;;;5037668;28;20481;-68
2022/04/02 02:02:11;;;;;;;1.93;1.50;;;1.90;99.90;;;;;;5014475;28;20455;-66
2022/04/02 02:04:37;;;;;;;2.20;1.83;;;1.90;99.90;;;;;;5037608;28;20467;-67
2022/04/02 02:07:04;;;;;;;1.73;1.63;;;1.80;99.90;;;;;;5047705;28;20529;-68
2022/04/02 02:09:30;;;;;;;2.77;1.70;;;1.90;99.90;;;;;;5029807;28;20228;-68
2022/04/02 02:12:22;;;;;;;1.97;1.80;;;1.80;99.90;;;;;;5023658;28;20484;-68
2022/04/02 02:15:08;;;;;;;2.80;2.30;;;1.90;99.90;;;;;;5033243;28;20495;-67
2022/04/02 02:17:34;;;;;;;2.30;2.03;;;1.80;99.90;;;;;;5025141;28;20447;-67
2022/04/02 02:20:01;;;;;;;2.30;2.10;;;1.80;99.90;;;;;;5037839;28;20478;-68
2022/04/02 02:22:26;;;;;;;5.40;2.30;;;1.80;99.90;;;;;;5041253;28;20485;-67
2022/04/02 02:24:52;;;;;;;4.20;2.47;;;1.80;99.90;;;;;;5028068;28;20238;-68
2022/04/02 02:27:18;;;;;;;2.27;1.90;;;1.90;99.90;;;;;;5030108;28;20299;-66
2022/04/02 02:29:44;;;;;;;2.13;1.60;;;1.80;99.90;;;;;;5009562;28;20229;-69
2022/04/02 02:32:18;;;;;;;2.90;1.70;;;1.90;99.90;;;;;;5030835;28;20495;-67
2022/04/02 02:37:30;;;;;;;1.80;1.70;;;1.90;99.90;;;;;;5057832;28;20298;-68
2022/04/02 02:40:02;;;;;;;2.20;1.80;;;1.90;99.90;;;;;;5042844;28;20451;-68
2022/04/02 02:42:28;;;;;;;1.70;1.57;;;1.80;99.90;;;;;;5026262;28;20453;-67
2022/04/02 02:45:02;;;;;;;2.97;1.70;;;1.80;99.90;;;;;;5024373;28;20463;-68
2022/04/02 02:47:30;;;;;;;7.57;2.03;;;1.80;99.90;;;;;;5031695;28;20456;-68
2022/04/02 02:49:58;;;;;;;2.10;1.63;;;1.80;99.90;;;;;;5011985;28;20489;-67
2022/04/02 02:52:30;;;;;;;4.13;2.20;;;1.80;99.90;;;;;;5042232;28;20871;-67
2022/04/02 02:54:57;;;;;;;2.40;2.17;;;1.80;99.90;;;;;;5027301;28;20463;-68
2022/04/02 02:57:23;;;;;;;3.00;2.17;;;1.80;99.90;;;;;;5022118;28;20852;-67
2022/04/02 02:59:49;;;;;;;2.17;1.73;;;1.80;99.90;;;;;;5045408;28;20442;-68
2022/04/02 03:02:18;;;;;;;3.70;1.90;;;1.80;99.90;;;;;;5026409;28;20235;-66
2022/04/02 03:04:49;;;;;;;4.27;2.67;;;1.80;99.90;;;;;;5035411;28;20489;-67
2022/04/02 03:07:22;;;;;;;3.33;1.50;;;1.80;99.90;;;;;;5020194;28;20452;-68
2022/04/02 03:09:48;;;;;;;2.30;2.00;;;1.70;99.90;;;;;;5032257;28;20459;-67
2022/04/02 03:12:14;;;;;;;2.73;2.00;;;1.70;99.90;;;;;;5021118;28;20231;-68
2022/04/02 03:14:40;;;;;;;2.10;1.80;;;1.80;99.90;;;;;;5014465;28;20460;-68
2022/04/02 03:17:06;;;;;;;3.13;1.73;;;1.80;99.90;;;;;;5017906;28;20271;-67
2022/04/02 03:19:33;;;;;;;2.83;2.00;;;1.80;99.90;;;;;;5032796;28;20462;-68
2022/04/02 03:21:59;;;;;;;2.13;1.93;;;1.80;99.90;;;;;;5037032;28;20448;-68
2022/04/02 03:24:25;;;;;;;3.83;2.17;;;1.80;99.90;;;;;;5031499;28;20238;-68
2022/04/02 03:26:51;;;;;;;3.67;2.33;;;1.70;99.90;;;;;;5030200;28;20515;-67
2022/04/02 03:29:29;;;;;;;2.60;2.17;;;1.70;99.90;;;;;;5020595;28;20219;-68
2022/04/02 03:31:56;;;;;;;2.27;1.80;;;1.70;99.90;;;;;;5044437;28;20543;-66
2022/04/02 03:34:24;;;;;;;1.77;1.50;;;1.80;99.90;;;;;;5037192;28;20465;-68
2022/04/02 03:36:56;;;;;;;4.27;2.93;;;1.80;99.90;;;;;;5036949;28;20453;-68
2022/04/02 03:39:22;;;;;;;2.50;2.30;;;1.90;99.90;;;;;;5010249;28;20456;-68
2022/04/02 03:41:48;;;;;;;1.80;1.70;;;1.80;99.90;;;;;;5028865;28;20212;-66
2022/04/02 03:44:14;;;;;;;3.73;2.30;;;1.80;99.90;;;;;;5036442;28;20242;-68
2022/04/02 03:49:38;;;;;;;3.20;2.27;;;1.70;99.90;;;;;;5030883;28;20463;-66
2022/04/02 03:52:06;;;;;;;2.90;2.23;;;1.60;99.90;;;;;;5029812;28;20487;-68
2022/04/02 03:54:31;;;;;;;3.13;2.47;;;1.60;99.90;;;;;;5019185;28;20450;-67
2022/04/02 03:56:58;;;;;;;2.63;2.40;;;1.60;99.90;;;;;;5048585;28;20454;-68
2022/04/02 03:59:25;;;;;;;3.53;2.00;;;1.70;99.90;;;;;;5015536;28;20472;-68
2022/04/02 04:01:54;;;;;;;2.20;2.00;;;1.70;99.90;;;;;;5024825;28;20510;-68
2022/04/02 04:04:22;;;;;;;2.23;2.07;;;1.70;99.90;;;;;;5014084;28;20456;-68
2022/04/02 04:06:48;;;;;;;2.40;2.20;;;1.80;99.90;;;;;;5017451;28;20463;-65
2022/04/02 04:09:15;;;;;;;1.63;1.53;;;1.80;99.90;;;;;;5049802;28;20520;-68
2022/04/02 04:11:44;;;;;;;2.40;1.97;;;1.70;99.90;;;;;;5023514;28;20571;-68
2022/04/02 04:14:12;;;;;;;3.73;2.13;;;1.70;99.90;;;;;;5018351;28;20513;-68
2022/04/02 04:16:37;;;;;;;3.00;2.37;;;1.70;99.90;;;;;;5018653;28;20452;-68
2022/04/02 04:19:05;;;;;;;2.27;2.07;;;1.70;99.90;;;;;;5030531;28;20455;-68
2022/04/02 04:21:31;;;;;;;3.70;3.30;;;1.70;99.90;;;;;;5040590;28;20454;-68
2022/04/02 04:23:57;;;;;;;3.80;2.07;;;1.70;99.90;;;;;;5010528;28;20455;-67
2022/04/02 04:26:25;;;;;;;3.47;2.23;;;1.70;99.90;;;;;;5041943;28;20293;-68
2022/04/02 04:28:51;;;;;;;4.37;2.27;;;1.70;99.90;;;;;;5032629;28;20467;-66
2022/04/02 04:31:19;;;;;;;2.60;2.40;;;1.80;99.90;;;;;;5046321;28;20449;-66
2022/04/02 04:33:48;;;;;;;2.27;1.77;;;1.70;99.90;;;;;;5015140;28;20452;-66
2022/04/02 04:36:15;;;;;;;4.27;2.57;;;1.70;99.90;;;;;;5031961;28;20451;-68
2022/04/02 04:38:42;;;;;;;1.80;1.70;;;1.70;99.90;;;;;;5027452;28;20525;-67
2022/04/02 04:41:13;;;;;;;2.97;2.43;;;1.70;99.90;;;;;;5037401;28;20462;-68
2022/04/02 04:43:41;;;;;;;5.20;2.50;;;1.80;99.90;;;;;;5029415;28;20458;-68
2022/04/02 04:46:09;;;;;;;2.03;1.93;;;1.80;99.90;;;;;;5029650;28;20966;-68
2022/04/02 04:48:38;;;;;;;2.87;1.70;;;1.80;99.90;;;;;;5026752;28;20471;-68
2022/04/02 04:51:05;;;;;;;3.47;2.20;;;1.80;99.90;;;;;;5027670;28;20451;-68
2022/04/02 04:53:32;;;;;;;5.10;2.87;;;1.90;99.90;;;;;;5033642;28;20503;-65
2022/04/02 04:55:58;;;;;;;3.30;2.40;;;1.80;99.90;;;;;;5014236;28;20930;-68
2022/04/02 04:58:24;;;;;;;2.33;2.13;;;1.80;99.90;;;;;;5031772;28;20246;-67
2022/04/02 05:00:53;;;;;;;3.27;2.50;;;1.80;99.90;;;;;;5014538;28;20455;-68
2022/04/02 05:03:22;;;;;;;8.43;3.20;;;1.80;99.90;;;;;;5019177;28;20530;-68
2022/04/02 05:05:52;;;;;;;3.30;2.13;;;1.80;99.90;;;;;;5032695;28;20837;-68
2022/04/02 05:08:21;;;;;;;2.87;2.50;;;1.80;99.90;;;;;;5024724;28;20464;-68
2022/04/02 05:10:47;;;;;;;2.90;2.60;;;1.80;99.90;;;;;;5017463;28;20459;-68
2022/04/02 05:13:19;;;;;;;2.87;2.50;;;1.70;99.90;;;;;;5033924;28;20477;-68
2022/04/02 05:15:48;;;;;;;3.43;1.90;;;1.80;99.90;;;;;;5016151;28;20448;-67
2022/04/02 05:18:16;;;;;;;2.53;2.20;;;1.80;99.90;;;;;;5009964;28;20456;-68
2022/04/02 05:20:42;;;;;;;3.57;2.40;;;1.80;99.90;;;;;;4993521;28;20460;-68
2022/04/02 05:23:09;;;;;;;4.10;2.83;;;1.80;99.90;;;;;;5058409;28;20535;-69
2022/04/02 05:25:36;;;;;;;2.90;2.30;;;1.80;99.90;;;;;;5020437;28;20539;-69
2022/04/02 05:28:06;;;;;;;5.07;2.87;;;1.70;99.90;;;;;;5019689;28;20474;-68
2022/04/02 05:30:33;;;;;;;2.70;2.50;;;1.80;99.90;;;;;;5036073;28;20453;-67
2022/04/02 05:32:59;;;;;;;3.93;2.93;;;1.80;99.90;;;;;;5040581;28;20450;-67
2022/04/02 05:35:25;;;;;;;3.10;2.80;;;1.80;99.90;;;;;;5033037;28;20464;-68
2022/04/02 05:37:51;;;;;;;6.37;3.17;;;1.90;99.90;;;;;;5036289;28;20243;-68
2022/04/02 05:40:17;;;;;;;6.07;3.77;;;1.90;99.90;;;;;;5023433;28;20474;-69
2022/04/02 05:42:43;;;;;;;4.13;3.03;;;1.90;99.90;;;;;;5035232;28;20213;-69
2022/04/02 05:45:09;;;;;;;4.70;3.00;;;1.90;99.90;;;;;;5038840;28;20251;-68
2022/04/02 05:47:46;;;;;;;2.90;2.70;;;1.80;99.90;;;;;;5035381;28;20243;-69
2022/04/02 05:50:13;;;;;;;4.57;2.77;;;1.80;99.90;;;;;;5037701;28;20588;-68
2022/04/02 05:52:40;;;;;;;3.30;2.97;;;1.80;99.90;;;;;;5034051;28;20451;-68
2022/04/02 05:55:07;;;;;;;2.43;2.23;;;1.70;99.90;;;;;;5030058;28;20451;-68
2022/04/02 05:57:33;;;;;;;4.27;3.07;;;1.80;99.90;;;;;;5033590;28;20450;-69
2022/04/02 05:59:59;;;;;;;3.97;3.33;;;1.80;99.90;;;;;;5033716;28;20462;-68
2022/04/02 06:02:25;;;;;;;3.47;2.97;;;1.70;99.90;;;;;;5015481;28;20452;-68
2022/04/02 06:04:51;;;;;;;3.53;2.70;;;1.70;99.90;;;;;;5040154;28;20283;-68
2022/04/02 06:07:16;;;;;;;4.23;2.53;;;1.70;99.90;;;;;;5034479;28;20242;-68
2022/04/02 06:09:43;;;;;;;4.07;2.30;;;1.70;99.90;;;;;;5024856;28;20311;-68
2022/04/02 06:12:09;;;;;;;3.57;2.80;;;1.70;99.90;;;;;;5020760;28;20235;-68
2022/04/02 06:14:34;;;;;;;3.73;3.00;;;1.70;99.90;;;;;;5048270;28;20957;-68
2022/04/02 06:17:00;;;;;;;4.80;2.97;;;1.70;99.90;;;;;;5014474;28;20229;-68
2022/04/02 06:19:26;;;;;;;5.17;2.80;;;1.70;99.90;;;;;;5024754;28;20232;-68
2022/04/02 06:21:51;;;;;;;4.80;3.00;;;1.70;99.90;;;;;;5034303;28;20228;-68
2022/04/02 06:24:17;;;;;;;2.43;2.20;;;1.60;99.90;;;;;;5018789;28;20220;-69
2022/04/02 06:26:43;;;;;;;4.17;2.90;;;1.60;99.90;;;;;;5034769;28;20220;-68
2022/04/02 06:29:08;;;;;;;2.93;2.63;;;1.50;99.90;;;;;;5027133;28;20295;-68
2022/04/02 06:31:34;;;;;;;2.57;2.13;;;1.60;99.90;;;;;;5029258;28;20220;-68
2022/04/02 06:34:00;;;;;;;2.80;2.60;;;1.40;99.90;;;;;;5030467;28;20228;-68
2022/04/02 06:36:26;;;;;;;3.10;1.90;;;1.30;99.90;;;;;;5027038;28;20462;-69
2022/04/02 06:38:53;;;;;;;3.20;2.60;;;1.30;99.90;;;;;;5028159;28;20224;-68
2022/04/02 06:41:19;;;;;;;3.23;2.30;;;1.40;99.90;;;;;;5019453;28;20478;-68
2022/04/02 06:43:45;;;;;;;3.50;2.53;;;1.40;99.90;;;;;;5046412;28;20281;-66
2022/04/02 06:46:15;;;;;;;2.80;2.43;;;1.40;99.90;;;;;;5027529;28;20491;-68
2022/04/02 06:48:41;;;;;;;4.20;2.57;;;1.40;99.90;;;;;;5030695;28;20530;-68
2022/04/02 06:51:07;;;;;;;4.07;2.33;;;1.50;99.90;;;;;;5037226;28;20220;-68
2022/04/02 06:53:34;;;;;;;6.23;2.33;;;1.40;99.90;;;;;;5047693;28;20715;-67
2022/04/02 06:56:00;;;;;;;3.10;2.80;;;1.40;99.90;;;;;;5031672;28;20474;-68
2022/04/02 06:58:29;;;;;;;7.33;2.40;;;1.50;99.90;;;;;;5022143;28;20458;-68
2022/04/02 07:00:55;;;;;;;4.20;2.73;;;1.40;99.90;;;;;;5022946;28;20224;-68
2022/04/02 07:03:20;;;;;;;4.23;2.57;;;1.40;99.90;;;;;;5039854;28;20462;-66
2022/04/02 07:05:46;;;;;;;3.23;2.73;;;1.40;99.90;;;;;;5026672;28;20521;-68
2022/04/02 07:08:12;;;;;;;2.60;2.40;;;1.50;99.90;;;;;;5026268;28;20251;-69
2022/04/02 07:10:37;;;;;;;4.87;3.13;;;1.50;99.90;;;;;;5036275;28;20211;-69
2022/04/02 07:13:03;;;;;;;2.40;2.20;;;1.40;99.90;;;;;;5033921;28;20628;-68
2022/04/02 07:15:29;;;;;;;2.70;2.20;;;1.40;99.90;;;;;;5037383;28;20707;-68
2022/04/02 07:17:54;;;;;;;2.50;2.30;;;1.30;99.90;;;;;;5028503;28;20227;-68
2022/04/02 07:20:27;;;;;;;4.80;2.87;;;1.40;99.90;;;;;;5038201;28;20216;-68
2022/04/02 07:22:55;;;;;;;2.80;2.30;;;1.40;99.90;;;;;;5041299;28;20404;-68
2022/04/02 07:25:21;;;;;;;2.10;1.90;;;1.40;99.90;;;;;;5038515;28;20889;-68
2022/04/02 07:27:48;;;;;;;4.20;2.47;;;1.40;99.90;;;;;;5025986;28;20500;-68
2022/04/02 07:30:14;;;;;;;4.07;2.40;;;1.40;99.90;;;;;;5036458;28;20469;-69
2022/04/02 07:32:40;;;;;;;2.73;1.90;;;1.50;99.90;;;;;;5031971;28;20465;-69
2022/04/02 07:35:06;;;;;;;3.73;2.50;;;1.50;99.90;;;;;;5026878;28;20455;-68
2022/04/02 07:37:47;;;;;;;3.47;2.50;;;1.50;99.90;;;;;;5029452;28;20217;-69
2022/04/02 07:40:24;;;;;;;4.60;2.77;;;1.50;99.90;;;;;;5035063;28;20470;-67
2022/04/02 07:42:53;;;;;;;3.03;2.73;;;1.50;99.90;;;;;;5031785;28;20458;-68
2022/04/02 07:45:32;;;;;;;2.73;2.00;;;1.50;99.90;;;;;;5030554;28;20456;-67
2022/04/02 07:47:58;;;;;;;3.43;2.60;;;1.50;99.90;;;;;;5030537;28;20227;-68
2022/04/02 07:50:26;;;;;;;3.27;2.80;;;1.50;99.90;;;;;;5030781;28;20458;-69
2022/04/02 07:52:54;;;;;;;3.27;2.33;;;1.60;99.90;;;;;;5032223;28;20462;-69
2022/04/02 07:55:24;;;;;;;4.80;3.37;;;1.60;99.90;;;;;;5042538;28;20465;-68
2022/04/02 07:57:53;;;;;;;2.43;2.23;;;1.60;99.90;;;;;;5027226;28;20426;-68
2022/04/02 08:00:20;;;;;;;3.37;2.57;;;1.60;99.90;;;;;;5028897;28;20971;-67
2022/04/02 08:02:49;;;;;;;3.30;2.70;;;1.60;99.90;;;;;;5036159;28;20302;-68
2022/04/02 08:05:22;;;;;;;2.90;2.60;;;1.60;99.90;;;;;;5032995;28;20515;-68
2022/04/02 08:07:54;;;;;;;2.93;2.70;;;1.60;99.90;;;;;;5038285;28;20456;-68
2022/04/02 08:10:28;;;;;;;4.23;3.07;;;1.60;99.90;;;;;;5041879;28;20458;-68
2022/04/02 08:12:57;;;;;;;5.13;2.97;;;1.60;99.90;;;;;;5039142;28;20451;-68
2022/04/02 08:15:24;;;;;;;3.80;2.60;;;1.60;99.90;;;;;;5040460;28;20470;-68
2022/04/02 08:17:55;;;;;;;2.90;2.17;;;1.60;99.90;;;;;;5028227;28;20449;-68
2022/04/02 08:20:24;;;;;;;2.90;2.03;;;1.60;99.90;;;;;;5042895;28;20455;-68
2022/04/02 08:22:51;;;;;;;4.17;2.90;;;1.60;99.90;;;;;;5041165;28;20462;-68
2022/04/02 08:25:19;;;;;;;5.00;3.83;;;1.60;99.90;;;;;;5039964;28;20546;-68
2022/04/02 08:28:07;;;;;;;3.93;3.23;;;1.70;99.90;;;;;;5040594;28;20519;-68
2022/04/02 08:30:54;;;;;;;7.13;3.77;;;1.70;99.90;;;;;;5037884;28;20975;-68
2022/04/02 08:33:32;;;;;;;6.77;3.63;;;1.70;99.90;;;;;;5033236;28;20458;-67
2022/04/02 08:36:24;;;;;;;7.03;3.60;;;1.70;99.90;;;;;;5045676;28;20539;-68
2022/04/02 08:38:59;;;;;;;12.20;4.20;;;1.70;99.90;;;;;;5038833;28;20467;-67
2022/04/02 08:41:55;;;;;;;9.10;4.23;;;1.70;99.90;;;;;;5035952;28;20466;-66
2022/04/02 08:44:45;;;;;;;5.47;3.40;;;1.70;99.90;;;;;;5041941;28;20546;-68
2022/04/02 08:47:29;;;;;;;6.03;3.70;;;1.70;99.90;;;;;;5018605;28;20475;-67
2022/04/02 08:50:13;;;;;;;10.03;5.20;;;1.80;99.90;;;;;;5036525;28;20480;-66
2022/04/02 08:52:52;;;;;;;7.93;4.50;;;1.80;99.90;;;;;;5023303;28;20463;-69
2022/04/02 08:55:21;;;;;;;8.90;4.10;;;1.80;99.90;;;;;;5029283;28;20982;-68
2022/04/02 08:57:53;;;;;;;6.00;3.50;;;1.80;99.90;;;;;;5041284;28;20482;-68
2022/04/02 09:00:25;;;;;;;4.63;2.90;;;1.80;99.90;;;;;;5030619;28;20459;-68
2022/04/02 09:02:54;;;;;;;4.77;2.67;;;1.90;99.90;;;;;;5027385;28;20888;-68
2022/04/02 09:05:28;;;;;;;2.80;2.10;;;1.80;99.90;;;;;;5037761;28;20490;-68
2022/04/02 09:08:15;;;;;;;3.40;3.00;;;1.80;99.90;;;;;;5031676;28;20945;-68
2022/04/02 09:11:09;;;;;;;2.73;2.30;;;1.90;99.90;;;;;;5035904;28;20614;-69
2022/04/02 09:14:16;;;;;;;4.50;3.03;;;1.80;99.90;;;;;;5018705;28;20502;-66
2022/04/02 09:16:53;;;;;;;4.20;2.70;;;1.90;99.90;;;;;;5055741;28;20458;-68
2022/04/02 09:19:19;;;;;;;4.53;2.40;;;1.90;99.90;;;;;;5036385;28;20462;-67
2022/04/02 09:22:15;;;;;;;4.10;3.27;;;2.00;99.90;;;;;;5036783;28;20455;-67
2022/04/02 09:24:43;;;;;;;2.40;2.20;;;1.90;99.90;;;;;;5014490;28;20228;-67
2022/04/02 09:27:27;;;;;;;2.90;2.60;;;1.90;99.90;;;;;;5029691;28;20958;-68
2022/04/02 09:30:05;;;;;;;3.83;3.50;;;1.90;99.90;;;;;;5052926;28;20532;-68
2022/04/02 09:32:43;;;;;;;5.47;3.80;;;1.90;99.90;;;;;;5030838;28;20455;-68
2022/04/02 09:35:26;;;;;;;5.63;3.03;;;2.00;99.90;;;;;;5057178;28;20490;-68
2022/04/02 09:38:13;;;;;;;3.90;2.80;;;2.00;99.90;;;;;;5034493;28;20452;-66
2022/04/02 09:40:43;;;;;;;4.60;2.93;;;2.00;99.90;;;;;;5036061;28;20534;-70
2022/04/02 09:43:37;;;;;;;4.60;3.80;;;2.00;99.90;;;;;;5041212;28;20474;-68
2022/04/02 09:46:40;;;;;;;3.27;2.43;;;2.10;99.90;;;;;;5039654;28;20496;-68
2022/04/02 09:49:21;;;;;;;3.40;2.50;;;2.00;99.90;;;;;;5033802;28;20451;-67
2022/04/02 09:51:57;;;;;;;7.73;2.83;;;2.00;99.90;;;;;;5029180;28;20446;-67
2022/04/02 09:54:36;;;;;;;4.77;2.63;;;2.10;99.90;;;;;;5037740;28;20454;-68
2022/04/02 09:57:13;;;;;;;4.90;3.50;;;2.10;99.90;;;;;;5035238;28;20451;-68
2022/04/02 10:00:03;;;;;;;6.47;3.10;;;2.10;99.90;;;;;;5027952;28;20463;-68
2022/04/02 10:02:57;;;;;;;12.63;2.90;;;2.10;99.90;;;;;;5037278;28;20463;-68
2022/04/02 10:05:33;;;;;;;4.37;3.20;;;2.10;99.90;;;;;;5033774;28;20558;-68
2022/04/02 10:08:05;;;;;;;3.70;2.90;;;2.10;99.90;;;;;;5034044;28;20455;-67
2022/04/02 10:10:32;;;;;;;4.67;2.97;;;2.10;99.90;;;;;;5030974;28;20518;-68
2022/04/02 10:12:58;;;;;;;5.23;3.23;;;2.10;99.90;;;;;;5037744;28;20501;-68
2022/04/02 10:15:24;;;;;;;4.80;3.80;;;2.10;99.90;;;;;;5037622;28;20470;-68
2022/04/02 10:17:52;;;;;;;3.43;3.13;;;2.10;99.90;;;;;;5036634;28;20538;-67
2022/04/02 10:20:28;;;;;;;5.27;3.30;;;2.20;99.90;;;;;;5038536;28;20459;-67
2022/04/02 10:23:06;;;;;;;4.37;3.97;;;2.20;99.90;;;;;;5014520;28;20466;-68
2022/04/02 10:25:41;;;;;;;4.10;3.10;;;2.20;99.90;;;;;;5035961;28;20501;-67
2022/04/02 10:28:13;;;;;;;3.73;2.80;;;2.20;99.90;;;;;;5025516;28;20455;-68
2022/04/02 10:30:42;;;;;;;4.00;2.63;;;2.30;99.90;;;;;;5014499;28;20473;-68
2022/04/02 10:33:29;;;;;;;3.57;3.27;;;2.30;99.90;;;;;;5031209;28;20839;-68
2022/04/02 10:35:56;;;;;;;4.20;3.07;;;2.30;99.90;;;;;;5032317;28;20466;-68
2022/04/02 10:38:36;;;;;;;3.20;2.60;;;2.40;99.90;;;;;;5030785;28;20483;-68
2022/04/02 10:41:13;;;;;;;4.17;2.60;;;2.30;99.90;;;;;;5029973;28;20447;-68
2022/04/02 10:44:22;;;;;;;3.57;2.80;;;2.40;99.90;;;;;;5032653;28;20615;-67
2022/04/02 10:46:49;;;;;;;4.47;2.53;;;2.40;99.90;;;;;;5021536;28;20486;-66
2022/04/02 10:49:26;;;;;;;3.60;3.30;;;2.40;99.90;;;;;;5025145;28;20444;-68
2022/04/02 10:51:54;;;;;;;3.70;2.87;;;2.40;99.90;;;;;;5017539;28;20466;-68
2022/04/02 10:54:29;;;;;;;4.80;3.40;;;2.40;99.90;;;;;;5041900;28;20479;-67
2022/04/02 10:56:55;;;;;;;4.03;2.67;;;2.50;99.90;;;;;;5008143;28;20483;-68
2022/04/02 10:59:22;;;;;;;4.60;3.37;;;2.50;99.90;;;;;;5038393;28;20466;-68
2022/04/02 11:01:54;;;;;;;5.10;3.30;;;2.50;99.90;;;;;;5035895;28;20464;-67
2022/04/02 11:04:27;;;;;;;4.97;3.90;;;2.50;99.90;;;;;;5026339;28;20467;-68
2022/04/02 11:06:54;;;;;;;5.83;3.50;;;2.60;99.90;;;;;;5025754;28;20451;-67
2022/04/02 11:09:30;;;;;;;6.17;3.73;;;2.60;99.90;;;;;;5036263;28;20457;-67
2022/04/02 11:12:14;;;;;;;9.17;4.80;;;2.70;99.90;;;;;;5033972;28;20534;-67
2022/04/02 11:14:44;;;;;;;7.03;4.27;;;2.70;99.90;;;;;;5010413;28;20565;-68
2022/04/02 11:17:31;;;;;;;7.93;3.73;;;2.70;99.90;;;;;;5023494;28;20456;-68
2022/04/02 11:20:08;;;;;;;7.00;4.53;;;2.80;99.90;;;;;;5026213;28;20983;-66
2022/04/02 11:22:51;;;;;;;6.13;4.10;;;2.80;99.90;;;;;;5031784;28;20451;-68
2022/04/02 11:25:24;;;;;;;4.43;3.10;;;2.80;99.90;;;;;;5027266;28;20456;-68
2022/04/02 11:27:54;;;;;;;5.73;4.43;;;2.80;99.90;;;;;;5014637;28;21263;-67
2022/04/02 11:30:21;;;;;;;9.27;5.33;;;2.80;99.90;;;;;;5018303;28;20472;-68
2022/04/02 11:32:48;;;;;;;4.10;3.57;;;2.80;99.90;;;;;;5047856;28;20466;-68
2022/04/02 11:35:16;;;;;;;8.53;5.50;;;2.90;99.90;;;;;;5012078;28;20475;-68
2022/04/02 11:38:10;;;;;;;6.97;4.37;;;2.90;99.90;;;;;;5020268;28;20619;-69
2022/04/02 11:40:45;;;;;;;4.50;3.50;;;2.90;99.90;;;;;;5037528;28;20455;-68
2022/04/02 11:43:13;;;;;;;6.60;4.00;;;2.90;99.90;;;;;;5016485;28;20455;-66
2022/04/02 11:45:41;;;;;;;4.40;3.50;;;2.90;99.90;;;;;;5043406;28;20479;-68
2022/04/02 11:48:13;;;;;;;5.57;3.60;;;3.00;99.90;;;;;;5040948;28;20454;-68
2022/04/02 11:50:44;;;;;;;6.13;4.37;;;3.00;99.90;;;;;;5039341;28;20458;-69
2022/04/02 11:53:12;;;;;;;5.90;3.80;;;3.00;99.90;;;;;;5026270;28;20509;-68
2022/04/02 11:55:39;;;;;;;4.00;3.57;;;3.00;99.90;;;;;;5012952;28;20564;-69
2022/04/02 11:58:09;;;;;;;6.87;3.63;;;3.00;99.90;;;;;;5035855;28;20469;-69
2022/04/02 12:00:37;;;;;;;4.30;3.63;;;3.00;99.90;;;;;;5025354;28;20462;-68
2022/04/02 12:03:06;;;;;;;5.23;4.37;;;3.00;99.90;;;;;;5030877;28;20516;-67
2022/04/02 12:05:45;;;;;;;6.70;4.00;;;3.00;99.90;;;;;;5024202;28;20482;-68
2022/04/02 12:08:29;;;;;;;5.10;3.90;;;3.10;99.90;;;;;;5030767;28;20469;-68
2022/04/02 12:10:55;;;;;;;4.13;3.67;;;3.10;99.90;;;;;;5031802;28;20455;-69
2022/04/02 12:13:21;;;;;;;3.77;3.43;;;3.10;99.90;;;;;;5026964;28;20894;-69
2022/04/02 12:16:13;;;;;;;3.93;3.40;;;3.10;99.90;;;;;;5042495;28;20470;-69
2022/04/02 12:18:57;;;;;;;4.80;3.40;;;3.10;99.90;;;;;;5031539;28;20475;-69
2022/04/02 12:21:36;;;;;;;6.70;3.90;;;3.10;99.90;;;;;;5030862;28;20462;-68
2022/04/02 12:24:04;;;;;;;4.23;3.83;;;3.10;99.90;;;;;;5048512;28;20457;-67
2022/04/02 12:26:30;;;;;;;3.80;3.40;;;3.20;99.90;;;;;;5024201;28;20455;-67
2022/04/02 12:29:01;;;;;;;3.53;3.23;;;3.20;99.90;;;;;;5032251;28;20456;-68
2022/04/02 12:31:30;;;;;;;4.37;3.70;;;3.20;99.90;;;;;;5039420;28;20459;-68
2022/04/02 12:33:58;;;;;;;4.77;3.10;;;3.20;99.90;;;;;;5028652;28;20447;-68
2022/04/02 12:36:29;;;;;;;4.27;3.87;;;3.20;99.90;;;;;;5033413;28;20463;-66
2022/04/02 12:39:00;;;;;;;4.77;3.43;;;3.30;99.90;;;;;;5031618;28;20905;-66
2022/04/02 12:41:28;;;;;;;5.63;3.97;;;3.30;99.90;;;;;;5028616;28;20532;-68
2022/04/02 12:44:02;;;;;;;7.43;4.53;;;3.30;99.90;;;;;;5042418;28;20998;-68
2022/04/02 12:46:29;;;;;;;5.80;4.00;;;3.40;99.90;;;;;;5048706;28;20478;-68
2022/04/02 12:48:56;;;;;;;7.90;4.00;;;3.30;99.90;;;;;;5042352;28;20474;-65
2022/04/02 12:51:25;;;;;;;5.67;3.70;;;3.30;99.90;;;;;;5027001;28;20465;-69
2022/04/02 12:54:06;;;;;;;4.20;3.80;;;3.40;99.90;;;;;;5049628;28;20493;-68
2022/04/02 12:56:35;;;;;;;3.23;2.93;;;3.40;99.90;;;;;;5034597;28;20475;-68
2022/04/02 12:59:01;;;;;;;3.23;3.00;;;3.30;99.90;;;;;;5039981;28;20555;-69
2022/04/02 13:01:33;;;;;;;7.20;3.03;;;3.30;99.90;;;;;;5030784;28;20839;-68
2022/04/02 13:04:03;;;;;;;5.43;3.30;;;3.40;99.90;;;;;;5044406;28;20830;-69
2022/04/02 13:06:34;;;;;;;5.30;3.17;;;3.40;99.90;;;;;;5036023;28;20493;-69
2022/04/02 13:09:04;;;;;;;4.77;3.50;;;3.40;99.90;;;;;;5025748;28;20468;-69
2022/04/02 13:11:51;;;;;;;3.60;3.30;;;3.40;99.90;;;;;;5020231;28;20475;-68
2022/04/02 13:14:45;;;;;;;4.10;3.17;;;3.50;99.90;;;;;;5035167;28;20474;-69
2022/04/02 13:17:18;;;;;;;6.10;3.80;;;3.50;99.90;;;;;;5028823;28;20539;-67
2022/04/02 13:22:42;;;;;;;6.10;3.70;;;3.50;99.90;;;;;;5031614;28;20443;-68
2022/04/02 13:25:12;;;;;;;3.10;2.80;;;3.50;99.90;;;;;;5038944;28;20461;-68
2022/04/02 13:27:57;;;;;;;4.70;2.60;;;3.50;99.90;;;;;;5040967;28;20470;-69